sensor_id;sensor_type;location;lat;lon;timestamp;pressure;altitude;pressure_sealevel;temperature;humidity
3780;BME280;1905;52.482;9.802;2023-04-06T00:02:01;101539.34;;;2.63;69.66
3780;BME280;1905;52.482;9.802;2023-04-06T00:04:32;101537.59;;;2.61;69.92
3780;BME280;1905;52.482;9.802;2023-04-06T00:07:03;101537.59;;;2.58;69.84
3780;BME280;1905;52.482;9.802;2023-04-06T00:09:31;101539.31;;;2.54;69.22
3780;BME280;1905;52.482;9.802;2023-04-06T00:11:59;101538.41;;;2.49;69.92
3780;BME280;1905;52.482;9.802;2023-04-06T00:14:29;101529.72;;;2.44;70.20
3780;BME280;1905;52.482;9.802;2023-04-06T00:16:58;101538.41;;;2.45;69.50
3780;BME280;1905;52.482;9.802;2023-04-06T00:19:26;101536.66;;;2.45;69.65
3780;BME280;1905;52.482;9.802;2023-04-06T00:21:54;101534.91;;;2.41;69.64
3780;BME280;1905;52.482;9.802;2023-04-06T00:24:21;101524.47;;;2.35;69.53
3780;BME280;1905;52.482;9.802;2023-04-06T00:26:49;101527.94;;;2.31;69.72
3780;BME280;1905;52.482;9.802;2023-04-06T00:29:16;101526.22;;;2.33;69.93
3780;BME280;1905;52.482;9.802;2023-04-06T00:31:44;101528.81;;;2.30;69.54
3780;BME280;1905;52.482;9.802;2023-04-06T00:34:13;101520.09;;;2.26;69.46
3780;BME280;1905;52.482;9.802;2023-04-06T00:36:42;101520.94;;;2.21;70.18
3780;BME280;1905;52.482;9.802;2023-04-06T00:39:10;101517.47;;;2.22;69.70
3780;BME280;1905;52.482;9.802;2023-04-06T00:41:38;101519.22;;;2.20;69.85
3780;BME280;1905;52.482;9.802;2023-04-06T00:44:06;101529.63;;;2.17;70.67
3780;BME280;1905;52.482;9.802;2023-04-06T00:46:34;101527.84;;;2.13;70.29
3780;BME280;1905;52.482;9.802;2023-04-06T00:49:02;101510.50;;;2.09;69.56
3780;BME280;1905;52.482;9.802;2023-04-06T00:51:30;101513.94;;;2.08;70.32
3780;BME280;1905;52.482;9.802;2023-04-06T00:53:58;101513.94;;;2.05;70.29
3780;BME280;1905;52.482;9.802;2023-04-06T00:56:29;101515.69;;;2.06;69.82
3780;BME280;1905;52.482;9.802;2023-04-06T00:58:57;101508.72;;;2.02;70.16
3780;BME280;1905;52.482;9.802;2023-04-06T01:01:25;101511.31;;;2.02;70.55
3780;BME280;1905;52.482;9.802;2023-04-06T01:03:57;101511.25;;;1.91;70.11
3780;BME280;1905;52.482;9.802;2023-04-06T01:06:25;101504.31;;;1.89;69.76
3780;BME280;1905;52.482;9.802;2023-04-06T01:09:00;101502.56;;;1.91;70.50
3780;BME280;1905;52.482;9.802;2023-04-06T01:11:28;101494.75;;;1.85;70.45
3780;BME280;1905;52.482;9.802;2023-04-06T01:13:56;101494.75;;;1.85;70.43
3780;BME280;1905;52.482;9.802;2023-04-06T01:16:34;101498.19;;;1.80;70.28
3780;BME280;1905;52.482;9.802;2023-04-06T01:19:22;101489.50;;;1.77;69.77
3780;BME280;1905;52.482;9.802;2023-04-06T01:21:52;101492.09;;;1.77;69.99
3780;BME280;1905;52.482;9.802;2023-04-06T01:24:42;101495.53;;;1.68;70.76
3780;BME280;1905;52.482;9.802;2023-04-06T01:27:24;101491.22;;;1.70;71.15
3780;BME280;1905;52.482;9.802;2023-04-06T01:30:19;101488.59;;;1.67;70.42
3780;BME280;1905;52.482;9.802;2023-04-06T01:32:51;101489.44;;;1.66;70.47
3780;BME280;1905;52.482;9.802;2023-04-06T01:35:36;101485.09;;;1.62;70.36
3780;BME280;1905;52.482;9.802;2023-04-06T01:38:14;101489.41;;;1.60;69.93
3780;BME280;1905;52.482;9.802;2023-04-06T01:40:44;101482.47;;;1.59;70.65
3780;BME280;1905;52.482;9.802;2023-04-06T01:43:12;101482.44;;;1.53;70.36
3780;BME280;1905;52.482;9.802;2023-04-06T01:45:59;101494.56;;;1.51;70.64
3780;BME280;1905;52.482;9.802;2023-04-06T01:48:32;101479.81;;;1.49;69.95
3780;BME280;1905;52.482;9.802;2023-04-06T01:51:07;101488.47;;;1.48;70.93
3780;BME280;1905;52.482;9.802;2023-04-06T01:53:43;101477.19;;;1.47;70.84
3780;BME280;1905;52.482;9.802;2023-04-06T01:56:12;101487.56;;;1.44;70.47
3780;BME280;1905;52.482;9.802;2023-04-06T01:58:46;101489.28;;;1.42;70.51
3780;BME280;1905;52.482;9.802;2023-04-06T02:01:15;101485.81;;;1.37;70.68
3780;BME280;1905;52.482;9.802;2023-04-06T02:03:51;101479.72;;;1.37;70.63
3780;BME280;1905;52.482;9.802;2023-04-06T02:06:18;101475.38;;;1.34;71.43
3780;BME280;1905;52.482;9.802;2023-04-06T02:08:47;101477.09;;;1.32;70.58
3780;BME280;1905;52.482;9.802;2023-04-06T02:11:16;101474.47;;;1.29;71.13
3780;BME280;1905;52.482;9.802;2023-04-06T02:13:48;101477.06;;;1.29;70.72
3780;BME280;1905;52.482;9.802;2023-04-06T02:16:16;101474.41;;;1.23;70.74
3780;BME280;1905;52.482;9.802;2023-04-06T02:18:45;101472.69;;;1.25;70.66
3780;BME280;1905;52.482;9.802;2023-04-06T02:21:13;101472.69;;;1.20;71.11
3780;BME280;1905;52.482;9.802;2023-04-06T02:23:44;101471.81;;;1.18;70.98
3780;BME280;1905;52.482;9.802;2023-04-06T02:26:11;101463.09;;;1.15;71.05
3780;BME280;1905;52.482;9.802;2023-04-06T02:28:40;101466.56;;;1.14;70.96
3780;BME280;1905;52.482;9.802;2023-04-06T02:31:08;101466.56;;;1.12;71.25
3780;BME280;1905;52.482;9.802;2023-04-06T02:33:36;101473.47;;;1.12;70.87
3780;BME280;1905;52.482;9.802;2023-04-06T02:36:07;101464.78;;;1.07;70.96
3780;BME280;1905;52.482;9.802;2023-04-06T02:38:34;101463.91;;;1.05;70.99
3780;BME280;1905;52.482;9.802;2023-04-06T02:41:02;101468.25;;;1.06;70.59
3780;BME280;1905;52.482;9.802;2023-04-06T02:43:32;101463.00;;;1.00;71.03
3780;BME280;1905;52.482;9.802;2023-04-06T02:46:10;101461.25;;;0.99;70.88
3780;BME280;1905;52.482;9.802;2023-04-06T02:48:38;101462.97;;;0.98;70.77
3780;BME280;1905;52.482;9.802;2023-04-06T02:51:06;101462.97;;;0.97;71.08
3780;BME280;1905;52.482;9.802;2023-04-06T02:53:35;101458.63;;;0.96;71.30
3780;BME280;1905;52.482;9.802;2023-04-06T02:56:02;101466.38;;;0.91;71.03
3780;BME280;1905;52.482;9.802;2023-04-06T02:58:44;101460.31;;;0.89;71.18
3780;BME280;1905;52.482;9.802;2023-04-06T03:01:13;101459.41;;;0.87;71.29
3780;BME280;1905;52.482;9.802;2023-04-06T03:03:41;101464.59;;;0.87;71.46
3780;BME280;1905;52.482;9.802;2023-04-06T03:06:16;101459.38;;;0.83;71.25
3780;BME280;1905;52.482;9.802;2023-04-06T03:08:44;101459.34;;;0.80;71.18
3780;BME280;1905;52.482;9.802;2023-04-06T03:11:12;101450.72;;;0.81;71.17
3780;BME280;1905;52.482;9.802;2023-04-06T03:13:44;101450.66;;;0.75;71.29
3780;BME280;1905;52.482;9.802;2023-04-06T03:16:13;101450.69;;;0.78;71.31
3780;BME280;1905;52.482;9.802;2023-04-06T03:18:41;101448.91;;;0.74;71.11
3780;BME280;1905;52.482;9.802;2023-04-06T03:21:12;101447.16;;;0.70;70.89
3780;BME280;1905;52.482;9.802;2023-04-06T03:23:50;101445.41;;;0.69;71.41
3780;BME280;1905;52.482;9.802;2023-04-06T03:26:17;101452.28;;;0.64;71.10
3780;BME280;1905;52.482;9.802;2023-04-06T03:28:45;101449.69;;;0.64;70.97
3780;BME280;1905;52.482;9.802;2023-04-06T03:31:17;101455.75;;;0.66;71.48
3780;BME280;1905;52.482;9.802;2023-04-06T03:33:59;101451.41;;;0.62;71.40
3780;BME280;1905;52.482;9.802;2023-04-06T03:36:30;101450.50;;;0.56;71.67
3780;BME280;1905;52.482;9.802;2023-04-06T03:38:59;101449.66;;;0.59;71.39
3780;BME280;1905;52.482;9.802;2023-04-06T03:41:26;101451.34;;;0.55;71.37
3780;BME280;1905;52.482;9.802;2023-04-06T03:44:20;101459.97;;;0.53;71.46
3780;BME280;1905;52.482;9.802;2023-04-06T03:46:49;101455.66;;;0.53;71.49
3780;BME280;1905;52.482;9.802;2023-04-06T03:49:17;101447.84;;;0.52;71.76
3780;BME280;1905;52.482;9.802;2023-04-06T03:51:48;101452.19;;;0.51;71.48
3780;BME280;1905;52.482;9.802;2023-04-06T03:54:15;101452.16;;;0.48;71.05
3780;BME280;1905;52.482;9.802;2023-04-06T03:56:43;101456.47;;;0.48;71.83
3780;BME280;1905;52.482;9.802;2023-04-06T03:59:10;101447.78;;;0.43;71.63
3780;BME280;1905;52.482;9.802;2023-04-06T04:01:38;101451.22;;;0.40;71.39
3780;BME280;1905;52.482;9.802;2023-04-06T04:04:07;101453.81;;;0.40;71.41
3780;BME280;1905;52.482;9.802;2023-04-06T04:06:35;101458.94;;;0.34;71.48
3780;BME280;1905;52.482;9.802;2023-04-06T04:09:05;101452.91;;;0.37;71.52
3780;BME280;1905;52.482;9.802;2023-04-06T04:11:33;101453.75;;;0.34;71.55
3780;BME280;1905;52.482;9.802;2023-04-06T04:14:00;101452.91;;;0.35;71.12
3780;BME280;1905;52.482;9.802;2023-04-06T04:16:28;101452.00;;;0.33;71.77
3780;BME280;1905;52.482;9.802;2023-04-06T04:18:56;101448.50;;;0.33;71.24
3780;BME280;1905;52.482;9.802;2023-04-06T04:21:25;101462.34;;;0.30;71.45
3780;BME280;1905;52.482;9.802;2023-04-06T04:23:53;101460.56;;;0.23;71.40
3780;BME280;1905;52.482;9.802;2023-04-06T04:26:21;101456.28;;;0.27;71.59
3780;BME280;1905;52.482;9.802;2023-04-06T04:28:48;101458.78;;;0.22;71.49
3780;BME280;1905;52.482;9.802;2023-04-06T04:31:16;101453.59;;;0.22;70.92
3780;BME280;1905;52.482;9.802;2023-04-06T04:33:47;101462.22;;;0.18;71.71
3780;BME280;1905;52.482;9.802;2023-04-06T04:36:22;101462.28;;;0.21;71.60
3780;BME280;1905;52.482;9.802;2023-04-06T04:38:54;101461.31;;;0.15;71.43
3780;BME280;1905;52.482;9.802;2023-04-06T04:41:23;101457.84;;;0.14;71.73
3780;BME280;1905;52.482;9.802;2023-04-06T04:43:53;101455.28;;;0.17;71.23
3780;BME280;1905;52.482;9.802;2023-04-06T04:46:23;101455.22;;;0.11;71.32
3780;BME280;1905;52.482;9.802;2023-04-06T04:48:53;101450.91;;;0.12;71.67
3780;BME280;1905;52.482;9.802;2023-04-06T04:51:22;101457.81;;;0.11;71.36
3780;BME280;1905;52.482;9.802;2023-04-06T04:54:06;101453.44;;;0.07;71.29
3780;BME280;1905;52.482;9.802;2023-04-06T04:56:34;101451.69;;;0.06;71.61
3780;BME280;1905;52.482;9.802;2023-04-06T04:59:15;101448.25;;;0.07;71.64
3780;BME280;1905;52.482;9.802;2023-04-06T05:01:49;101453.41;;;0.04;71.66
3780;BME280;1905;52.482;9.802;2023-04-06T05:04:26;101452.56;;;0.05;70.66
3780;BME280;1905;52.482;9.802;2023-04-06T05:07:04;101451.69;;;0.06;71.35
3780;BME280;1905;52.482;9.802;2023-04-06T05:09:35;101449.06;;;0.00;71.72
3780;BME280;1905;52.482;9.802;2023-04-06T05:12:02;101447.34;;;0.04;71.30
3780;BME280;1905;52.482;9.802;2023-04-06T05:14:35;101445.63;;;0.06;71.14
3780;BME280;1905;52.482;9.802;2023-04-06T05:17:07;101454.25;;;0.00;71.34
3780;BME280;1905;52.482;9.802;2023-04-06T05:19:34;101449.13;;;0.08;71.00
3780;BME280;1905;52.482;9.802;2023-04-06T05:22:02;101449.97;;;0.07;71.47
3780;BME280;1905;52.482;9.802;2023-04-06T05:24:34;101451.72;;;0.09;70.93
3780;BME280;1905;52.482;9.802;2023-04-06T05:27:05;101450.81;;;0.04;71.02
3780;BME280;1905;52.482;9.802;2023-04-06T05:29:33;101448.22;;;0.04;70.98
3780;BME280;1905;52.482;9.802;2023-04-06T05:32:01;101448.22;;;0.04;71.18
3780;BME280;1905;52.482;9.802;2023-04-06T05:34:29;101444.75;;;0.02;71.22
3780;BME280;1905;52.482;9.802;2023-04-06T05:37:01;101445.59;;;0.01;71.04
3780;BME280;1905;52.482;9.802;2023-04-06T05:39:28;101443.97;;;0.11;71.14
3780;BME280;1905;52.482;9.802;2023-04-06T05:41:57;101443.19;;;0.16;71.30
3780;BME280;1905;52.482;9.802;2023-04-06T05:44:43;101451.72;;;0.09;71.13
3780;BME280;1905;52.482;9.802;2023-04-06T05:47:14;101447.47;;;0.14;71.22
3780;BME280;1905;52.482;9.802;2023-04-06T05:49:44;101450.09;;;0.17;72.14
3780;BME280;1905;52.482;9.802;2023-04-06T05:52:19;101451.84;;;0.20;72.22
3780;BME280;1905;52.482;9.802;2023-04-06T05:54:48;101446.66;;;0.18;71.38
3780;BME280;1905;52.482;9.802;2023-04-06T05:57:18;101457.09;;;0.24;72.03
3780;BME280;1905;52.482;9.802;2023-04-06T05:59:47;101451.94;;;0.29;71.95
3780;BME280;1905;52.482;9.802;2023-04-06T06:02:15;101446.75;;;0.30;72.46
3780;BME280;1905;52.482;9.802;2023-04-06T06:04:47;101450.28;;;0.32;72.26
3780;BME280;1905;52.482;9.802;2023-04-06T06:07:16;101447.66;;;0.34;71.05
3780;BME280;1905;52.482;9.802;2023-04-06T06:09:56;101446.00;;;0.39;72.00
3780;BME280;1905;52.482;9.802;2023-04-06T06:12:31;101445.09;;;0.35;71.43
3780;BME280;1905;52.482;9.802;2023-04-06T06:15:00;101447.81;;;0.46;71.73
3780;BME280;1905;52.482;9.802;2023-04-06T06:17:29;101450.47;;;0.53;72.82
3780;BME280;1905;52.482;9.802;2023-04-06T06:19:57;101453.06;;;0.55;72.34
3780;BME280;1905;52.482;9.802;2023-04-06T06:22:26;101444.44;;;0.56;72.11
3780;BME280;1905;52.482;9.802;2023-04-06T06:24:54;101450.56;;;0.66;73.09
3780;BME280;1905;52.482;9.802;2023-04-06T06:27:22;101447.16;;;0.70;72.68
3780;BME280;1905;52.482;9.802;2023-04-06T06:29:51;101457.59;;;0.76;72.52
3780;BME280;1905;52.482;9.802;2023-04-06T06:32:19;101456.78;;;0.81;72.17
3780;BME280;1905;52.482;9.802;2023-04-06T06:34:50;101452.50;;;0.86;73.08
3780;BME280;1905;52.482;9.802;2023-04-06T06:37:18;101452.53;;;0.94;72.41
3780;BME280;1905;52.482;9.802;2023-04-06T06:39:47;101457.75;;;0.94;72.76
3780;BME280;1905;52.482;9.802;2023-04-06T06:42:15;101456.91;;;0.99;72.61
3780;BME280;1905;52.482;9.802;2023-04-06T06:44:50;101443.94;;;1.04;72.22
3780;BME280;1905;52.482;9.802;2023-04-06T06:47:19;101454.41;;;1.13;72.56
3780;BME280;1905;52.482;9.802;2023-04-06T06:49:47;101456.25;;;1.26;73.03
3780;BME280;1905;52.482;9.802;2023-04-06T06:52:14;101446.72;;;1.30;72.68
3780;BME280;1905;52.482;9.802;2023-04-06T06:54:43;101457.22;;;1.45;72.23
3780;BME280;1905;52.482;9.802;2023-04-06T06:57:10;101446.84;;;1.52;72.43
3780;BME280;1905;52.482;9.802;2023-04-06T06:59:38;101445.13;;;1.56;71.68
3780;BME280;1905;52.482;9.802;2023-04-06T07:02:06;101446.09;;;1.68;72.69
3780;BME280;1905;52.482;9.802;2023-04-06T07:04:34;101445.25;;;1.75;72.74
3780;BME280;1905;52.482;9.802;2023-04-06T07:07:02;101446.13;;;1.84;72.58
3780;BME280;1905;52.482;9.802;2023-04-06T07:09:30;101447.06;;;1.98;72.29
3780;BME280;1905;52.482;9.802;2023-04-06T07:11:57;101439.31;;;2.16;71.43
3780;BME280;1905;52.482;9.802;2023-04-06T07:14:25;101451.47;;;2.26;72.33
3780;BME280;1905;52.482;9.802;2023-04-06T07:16:52;101438.50;;;2.46;71.80
3780;BME280;1905;52.482;9.802;2023-04-06T07:19:20;101438.50;;;2.59;70.32
3780;BME280;1905;52.482;9.802;2023-04-06T07:21:50;101443.75;;;2.71;70.85
3780;BME280;1905;52.482;9.802;2023-04-06T07:24:17;101432.44;;;2.78;70.52
3780;BME280;1905;52.482;9.802;2023-04-06T07:26:45;101434.16;;;2.94;69.93
3780;BME280;1905;52.482;9.802;2023-04-06T07:29:13;101434.16;;;3.11;69.58
3780;BME280;1905;52.482;9.802;2023-04-06T07:31:40;101425.44;;;3.27;68.74
3780;BME280;1905;52.482;9.802;2023-04-06T07:34:08;101434.13;;;3.37;68.95
3780;BME280;1905;52.482;9.802;2023-04-06T07:36:38;101427.09;;;3.54;68.10
3780;BME280;1905;52.482;9.802;2023-04-06T07:39:07;101427.06;;;3.66;66.30
3780;BME280;1905;52.482;9.802;2023-04-06T07:41:35;101420.88;;;3.84;67.10
3780;BME280;1905;52.482;9.802;2023-04-06T07:44:03;101431.28;;;3.94;65.76
3780;BME280;1905;52.482;9.802;2023-04-06T07:46:32;101431.28;;;3.99;64.91
3780;BME280;1905;52.482;9.802;2023-04-06T07:49:00;101430.31;;;4.16;64.91
3780;BME280;1905;52.482;9.802;2023-04-06T07:51:31;101426.78;;;4.27;63.98
3780;BME280;1905;52.482;9.802;2023-04-06T07:53:59;101429.31;;;4.36;63.72
3780;BME280;1905;52.482;9.802;2023-04-06T07:56:28;101433.59;;;4.49;63.07
3780;BME280;1905;52.482;9.802;2023-04-06T07:58:55;101423.03;;;4.62;63.03
3780;BME280;1905;52.482;9.802;2023-04-06T08:01:24;101430.84;;;4.70;61.96
3780;BME280;1905;52.482;9.802;2023-04-06T08:03:52;101428.97;;;4.81;62.56
3780;BME280;1905;52.482;9.802;2023-04-06T08:06:22;101421.09;;;4.89;62.31
3780;BME280;1905;52.482;9.802;2023-04-06T08:08:49;101420.97;;;5.02;61.92
3780;BME280;1905;52.482;9.802;2023-04-06T08:11:17;101429.59;;;5.13;61.55
3780;BME280;1905;52.482;9.802;2023-04-06T08:13:49;101429.41;;;5.31;60.49
3780;BME280;1905;52.482;9.802;2023-04-06T08:16:16;101431.06;;;5.38;61.26
3780;BME280;1905;52.482;9.802;2023-04-06T08:18:44;101425.66;;;5.54;60.20
3780;BME280;1905;52.482;9.802;2023-04-06T08:21:11;101416.81;;;5.64;60.56
3780;BME280;1905;52.482;9.802;2023-04-06T08:23:39;101414.97;;;5.72;61.77
3780;BME280;1905;52.482;9.802;2023-04-06T08:26:06;101427.06;;;5.85;62.17
3780;BME280;1905;52.482;9.802;2023-04-06T08:28:34;101421.63;;;6.00;60.90
3780;BME280;1905;52.482;9.802;2023-04-06T08:31:05;101419.72;;;6.14;60.83
3780;BME280;1905;52.482;9.802;2023-04-06T08:33:33;101417.78;;;6.27;60.85
3780;BME280;1905;52.482;9.802;2023-04-06T08:36:10;101416.72;;;6.38;60.78
3780;BME280;1905;52.482;9.802;2023-04-06T08:38:38;101413.81;;;6.56;60.88
3780;BME280;1905;52.482;9.802;2023-04-06T08:41:09;101412.78;;;6.68;59.37
3780;BME280;1905;52.482;9.802;2023-04-06T08:43:42;101406.38;;;6.84;58.41
3780;BME280;1905;52.482;9.802;2023-04-06T08:46:12;101407.09;;;6.92;59.50
3780;BME280;1905;52.482;9.802;2023-04-06T08:48:40;101406.69;;;7.15;58.70
3780;BME280;1905;52.482;9.802;2023-04-06T08:51:09;101409.06;;;7.30;58.20
3780;BME280;1905;52.482;9.802;2023-04-06T08:53:37;101405.41;;;7.37;57.41
3780;BME280;1905;52.482;9.802;2023-04-06T08:56:05;101405.19;;;7.49;56.23
3780;BME280;1905;52.482;9.802;2023-04-06T08:58:35;101399.56;;;7.67;58.79
3780;BME280;1905;52.482;9.802;2023-04-06T09:01:07;101398.41;;;7.80;58.12
3780;BME280;1905;52.482;9.802;2023-04-06T09:03:38;101398.16;;;7.91;56.52
3780;BME280;1905;52.482;9.802;2023-04-06T09:06:07;101399.69;;;8.03;56.36
3780;BME280;1905;52.482;9.802;2023-04-06T09:08:37;101395.09;;;8.11;56.09
3780;BME280;1905;52.482;9.802;2023-04-06T09:11:05;101394.84;;;8.23;55.62
3780;BME280;1905;52.482;9.802;2023-04-06T09:13:44;101391.06;;;8.36;55.13
3780;BME280;1905;52.482;9.802;2023-04-06T09:16:12;101399.59;;;8.46;54.50
3780;BME280;1905;52.482;9.802;2023-04-06T09:18:41;101395.81;;;8.57;54.74
3780;BME280;1905;52.482;9.802;2023-04-06T09:21:10;101391.22;;;8.67;55.07
3780;BME280;1905;52.482;9.802;2023-04-06T09:23:38;101390.16;;;8.74;55.00
3780;BME280;1905;52.482;9.802;2023-04-06T09:26:07;101389.72;;;8.90;54.72
3780;BME280;1905;52.482;9.802;2023-04-06T09:28:43;101391.34;;;8.96;55.66
3780;BME280;1905;52.482;9.802;2023-04-06T09:31:12;101398.16;;;9.05;54.46
3780;BME280;1905;52.482;9.802;2023-04-06T09:33:43;101384.84;;;9.09;55.78
3780;BME280;1905;52.482;9.802;2023-04-06T09:36:11;101388.19;;;9.16;55.15
3780;BME280;1905;52.482;9.802;2023-04-06T09:38:51;101394.22;;;9.21;52.58
3780;BME280;1905;52.482;9.802;2023-04-06T09:41:23;101388.88;;;9.22;52.50
3780;BME280;1905;52.482;9.802;2023-04-06T09:43:52;101380.03;;;9.25;52.12
3780;BME280;1905;52.482;9.802;2023-04-06T09:46:30;101379.66;;;9.38;53.04
3780;BME280;1905;52.482;9.802;2023-04-06T09:49:18;101377.00;;;9.40;54.78
3780;BME280;1905;52.482;9.802;2023-04-06T09:51:47;101379.34;;;9.49;54.20
3780;BME280;1905;52.482;9.802;2023-04-06T09:54:18;101379.19;;;9.55;53.33
3780;BME280;1905;52.482;9.802;2023-04-06T09:56:54;101370.19;;;9.62;53.75
3780;BME280;1905;52.482;9.802;2023-04-06T09:59:30;101372.69;;;9.67;53.99
3780;BME280;1905;52.482;9.802;2023-04-06T10:02:00;101371.66;;;9.72;51.46
3780;BME280;1905;52.482;9.802;2023-04-06T10:04:37;101370.66;;;9.76;51.68
3780;BME280;1905;52.482;9.802;2023-04-06T10:07:07;101366.25;;;9.77;51.61
3780;BME280;1905;52.482;9.802;2023-04-06T10:09:38;101363.25;;;9.89;53.63
3780;BME280;1905;52.482;9.802;2023-04-06T10:12:07;101358.72;;;9.92;52.17
3780;BME280;1905;52.482;9.802;2023-04-06T10:14:35;101354.94;;;10.02;51.87
3780;BME280;1905;52.482;9.802;2023-04-06T10:17:04;101355.75;;;10.03;51.53
3780;BME280;1905;52.482;9.802;2023-04-06T10:19:37;101354.06;;;10.02;52.81
3780;BME280;1905;52.482;9.802;2023-04-06T10:22:08;101345.84;;;10.11;53.28
3780;BME280;1905;52.482;9.802;2023-04-06T10:24:41;101356.22;;;10.19;51.25
3780;BME280;1905;52.482;9.802;2023-04-06T10:27:09;101347.19;;;10.26;51.11
3780;BME280;1905;52.482;9.802;2023-04-06T10:29:44;101342.59;;;10.31;51.70
3780;BME280;1905;52.482;9.802;2023-04-06T10:32:12;101347.19;;;10.26;50.92
3780;BME280;1905;52.482;9.802;2023-04-06T10:34:41;101345.16;;;10.34;52.37
3780;BME280;1905;52.482;9.802;2023-04-06T10:37:13;101345.16;;;10.34;53.08
3780;BME280;1905;52.482;9.802;2023-04-06T10:39:47;101333.44;;;10.42;51.81
3780;BME280;1905;52.482;9.802;2023-04-06T10:42:24;101334.22;;;10.46;49.51
3780;BME280;1905;52.482;9.802;2023-04-06T10:44:51;101334.06;;;10.50;49.18
3780;BME280;1905;52.482;9.802;2023-04-06T10:47:19;101331.34;;;10.52;48.90
3780;BME280;1905;52.482;9.802;2023-04-06T10:49:48;101334.81;;;10.54;49.96
3780;BME280;1905;52.482;9.802;2023-04-06T10:52:15;101327.59;;;10.59;49.99
3780;BME280;1905;52.482;9.802;2023-04-06T10:54:43;101324.75;;;10.65;49.37
3780;BME280;1905;52.482;9.802;2023-04-06T10:57:13;101324.53;;;10.71;49.14
3780;BME280;1905;52.482;9.802;2023-04-06T10:59:44;101321.00;;;10.72;48.61
3780;BME280;1905;52.482;9.802;2023-04-06T11:02:19;101319.59;;;10.62;52.45
3780;BME280;1905;52.482;9.802;2023-04-06T11:04:55;101306.00;;;10.72;50.41
3780;BME280;1905;52.482;9.802;2023-04-06T11:07:24;101323.47;;;10.76;49.54
3780;BME280;1905;52.482;9.802;2023-04-06T11:09:53;101315.91;;;10.92;46.97
3780;BME280;1905;52.482;9.802;2023-04-06T11:12:41;101310.03;;;10.84;50.34
3780;BME280;1905;52.482;9.802;2023-04-06T11:15:09;101309.78;;;10.90;49.88
3780;BME280;1905;52.482;9.802;2023-04-06T11:17:37;101308.59;;;10.99;49.06
3780;BME280;1905;52.482;9.802;2023-04-06T11:20:10;101304.19;;;10.99;49.79
3780;BME280;1905;52.482;9.802;2023-04-06T11:22:48;101305.81;;;11.03;48.67
3780;BME280;1905;52.482;9.802;2023-04-06T11:25:16;101316.03;;;11.12;46.12
3780;BME280;1905;52.482;9.802;2023-04-06T11:27:44;101314.19;;;11.14;45.82
3780;BME280;1905;52.482;9.802;2023-04-06T11:30:14;101312.38;;;11.16;45.88
3780;BME280;1905;52.482;9.802;2023-04-06T11:32:42;101312.28;;;11.19;47.94
3780;BME280;1905;52.482;9.802;2023-04-06T11:35:20;101308.59;;;11.23;46.99
3780;BME280;1905;52.482;9.802;2023-04-06T11:37:48;101299.53;;;11.30;46.70
3780;BME280;1905;52.482;9.802;2023-04-06T11:40:20;101309.75;;;11.40;47.27
3780;BME280;1905;52.482;9.802;2023-04-06T11:42:52;101311.59;;;11.38;45.79
3780;BME280;1905;52.482;9.802;2023-04-06T11:45:19;101299.47;;;11.32;46.01
3780;BME280;1905;52.482;9.802;2023-04-06T11:47:56;101297.50;;;11.37;46.20
3780;BME280;1905;52.482;9.802;2023-04-06T11:50:31;101298.09;;;11.45;44.80
3780;BME280;1905;52.482;9.802;2023-04-06T11:53:00;101296.31;;;11.46;44.49
3780;BME280;1905;52.482;9.802;2023-04-06T11:55:29;101286.53;;;11.48;44.00
3780;BME280;1905;52.482;9.802;2023-04-06T11:57:59;101292.03;;;11.42;45.82
3780;BME280;1905;52.482;9.802;2023-04-06T12:00:26;101291.06;;;11.44;47.59
3780;BME280;1905;52.482;9.802;2023-04-06T12:02:55;101285.44;;;11.53;45.08
3780;BME280;1905;52.482;9.802;2023-04-06T12:05:22;101285.44;;;11.53;45.63
3780;BME280;1905;52.482;9.802;2023-04-06T12:07:52;101287.72;;;11.62;44.76
3780;BME280;1905;52.482;9.802;2023-04-06T12:10:20;101284.34;;;11.59;46.79
3780;BME280;1905;52.482;9.802;2023-04-06T12:12:50;101269.38;;;11.58;48.59
3780;BME280;1905;52.482;9.802;2023-04-06T12:15:18;101276.09;;;11.66;47.60
3780;BME280;1905;52.482;9.802;2023-04-06T12:17:46;101277.75;;;11.70;44.79
3780;BME280;1905;52.482;9.802;2023-04-06T12:20:13;101278.34;;;11.77;44.93
3780;BME280;1905;52.482;9.802;2023-04-06T12:22:53;101272.03;;;11.81;46.58
3780;BME280;1905;52.482;9.802;2023-04-06T12:25:21;101269.94;;;11.89;45.93
3780;BME280;1905;52.482;9.802;2023-04-06T12:27:48;101275.38;;;11.86;45.94
3780;BME280;1905;52.482;9.802;2023-04-06T12:30:16;101264.91;;;11.83;47.20
3780;BME280;1905;52.482;9.802;2023-04-06T12:32:44;101264.91;;;11.83;47.29
3780;BME280;1905;52.482;9.802;2023-04-06T12:35:15;101266.44;;;11.88;49.19
3780;BME280;1905;52.482;9.802;2023-04-06T12:37:43;101267.78;;;11.99;44.69
3780;BME280;1905;52.482;9.802;2023-04-06T12:40:12;101265.22;;;11.97;46.14
3780;BME280;1905;52.482;9.802;2023-04-06T12:42:41;101263.25;;;12.02;47.67
3780;BME280;1905;52.482;9.802;2023-04-06T12:45:09;101257.81;;;12.05;44.44
3780;BME280;1905;52.482;9.802;2023-04-06T12:47:37;101263.03;;;12.07;46.04
3780;BME280;1905;52.482;9.802;2023-04-06T12:50:06;101252.28;;;12.11;45.58
3780;BME280;1905;52.482;9.802;2023-04-06T12:52:36;101252.03;;;12.17;44.48
3780;BME280;1905;52.482;9.802;2023-04-06T12:55:05;101258.91;;;12.21;45.56
3780;BME280;1905;52.482;9.802;2023-04-06T12:57:34;101255.47;;;12.19;44.33
3780;BME280;1905;52.482;9.802;2023-04-06T13:00:04;101245.69;;;12.21;46.75
3780;BME280;1905;52.482;9.802;2023-04-06T13:02:34;101238.28;;;12.29;47.96
3780;BME280;1905;52.482;9.802;2023-04-06T13:05:03;101247.84;;;12.33;47.55
3780;BME280;1905;52.482;9.802;2023-04-06T13:07:30;101250.41;;;12.35;45.35
3780;BME280;1905;52.482;9.802;2023-04-06T13:09:58;101238.69;;;12.40;47.85
3780;BME280;1905;52.482;9.802;2023-04-06T13:12:26;101240.44;;;12.41;46.74
3780;BME280;1905;52.482;9.802;2023-04-06T13:14:54;101225.13;;;12.48;46.26
3780;BME280;1905;52.482;9.802;2023-04-06T13:17:26;101232.88;;;12.52;45.64
3780;BME280;1905;52.482;9.802;2023-04-06T13:19:54;101223.06;;;12.54;45.38
3780;BME280;1905;52.482;9.802;2023-04-06T13:22:22;101224.72;;;12.57;45.14
3780;BME280;1905;52.482;9.802;2023-04-06T13:24:49;101230.69;;;12.62;45.52
3780;BME280;1905;52.482;9.802;2023-04-06T13:27:17;101223.13;;;12.73;44.21
3780;BME280;1905;52.482;9.802;2023-04-06T13:29:44;101216.06;;;12.74;44.11
3780;BME280;1905;52.482;9.802;2023-04-06T13:32:13;101214.19;;;12.76;44.01
3780;BME280;1905;52.482;9.802;2023-04-06T13:34:43;101210.66;;;12.75;43.81
3780;BME280;1905;52.482;9.802;2023-04-06T13:37:12;101209.75;;;12.76;46.16